Terminal Aerodrome Forecast
Issued by NWS

Home | Current Version | Previous Version | Graphics & Text | Print | Product List | Glossary On
Versions: 1 2 3 4 5 6 7 8 9 10 11 12 13 14 15 16 17
329
FTUS43 KMPX 301128
TAFAXN
TAF
KAXN 301128Z 3012/0112 11004KT 1/4SM FG VV002
     FM301330 13007KT 4SM BR BKN005
     FM301600 13009KT P6SM SKC
     FM010300 11006KT P6SM BKN040
     FM010900 10005KT P6SM SCT020 OVC040=

USA.gov is the U.S. government's official web portal to all federal, state and local government web resources and services.